sensor_id;sensor_type;location;lat;lon;timestamp;P1;durP1;ratioP1;P2;durP2;ratioP2
65799;SDS011;52544;48.116;11.660;2023-02-28T00:00:32;5.57;;;2.88;;
65799;SDS011;52544;48.116;11.660;2023-02-28T00:02:58;10.48;;;2.95;;
65799;SDS011;52544;48.116;11.660;2023-02-28T00:05:24;5.82;;;2.80;;
65799;SDS011;52544;48.116;11.660;2023-02-28T00:07:51;4.53;;;2.88;;
65799;SDS011;52544;48.116;11.660;2023-02-28T00:10:27;6.20;;;2.60;;
65799;SDS011;52544;48.116;11.660;2023-02-28T00:12:55;6.70;;;2.95;;
65799;SDS011;52544;48.116;11.660;2023-02-28T00:15:25;7.85;;;3.00;;
65799;SDS011;52544;48.116;11.660;2023-02-28T00:17:50;4.65;;;2.63;;
65799;SDS011;52544;48.116;11.660;2023-02-28T00:20:16;4.65;;;2.97;;
65799;SDS011;52544;48.116;11.660;2023-02-28T00:22:44;5.82;;;2.83;;
65799;SDS011;52544;48.116;11.660;2023-02-28T00:25:11;5.43;;;3.17;;
65799;SDS011;52544;48.116;11.660;2023-02-28T00:27:38;4.60;;;2.63;;
65799;SDS011;52544;48.116;11.660;2023-02-28T00:30:05;5.82;;;3.40;;
65799;SDS011;52544;48.116;11.660;2023-02-28T00:32:34;8.07;;;3.47;;
65799;SDS011;52544;48.116;11.660;2023-02-28T00:34:59;5.32;;;2.95;;
65799;SDS011;52544;48.116;11.660;2023-02-28T00:37:25;6.72;;;3.53;;
65799;SDS011;52544;48.116;11.660;2023-02-28T00:39:51;8.93;;;3.40;;
65799;SDS011;52544;48.116;11.660;2023-02-28T00:42:16;7.78;;;3.55;;
65799;SDS011;52544;48.116;11.660;2023-02-28T00:44:42;22.80;;;4.05;;
65799;SDS011;52544;48.116;11.660;2023-02-28T00:47:07;6.13;;;3.25;;
65799;SDS011;52544;48.116;11.660;2023-02-28T00:49:33;6.20;;;3.28;;
65799;SDS011;52544;48.116;11.660;2023-02-28T00:51:58;6.40;;;3.50;;
65799;SDS011;52544;48.116;11.660;2023-02-28T00:54:23;7.63;;;4.03;;
65799;SDS011;52544;48.116;11.660;2023-02-28T00:56:53;6.30;;;3.15;;
65799;SDS011;52544;48.116;11.660;2023-02-28T00:59:19;7.50;;;3.58;;
65799;SDS011;52544;48.116;11.660;2023-02-28T01:01:44;7.75;;;3.50;;
65799;SDS011;52544;48.116;11.660;2023-02-28T01:04:11;26.95;;;10.85;;
65799;SDS011;52544;48.116;11.660;2023-02-28T01:06:36;15.35;;;6.72;;
65799;SDS011;52544;48.116;11.660;2023-02-28T01:09:03;8.65;;;4.25;;
65799;SDS011;52544;48.116;11.660;2023-02-28T01:11:30;7.50;;;4.13;;
65799;SDS011;52544;48.116;11.660;2023-02-28T01:13:56;7.88;;;3.83;;
65799;SDS011;52544;48.116;11.660;2023-02-28T01:16:21;11.77;;;5.25;;
65799;SDS011;52544;48.116;11.660;2023-02-28T01:18:47;22.83;;;8.20;;
65799;SDS011;52544;48.116;11.660;2023-02-28T01:21:14;25.05;;;8.80;;
65799;SDS011;52544;48.116;11.660;2023-02-28T01:23:41;35.30;;;12.13;;
65799;SDS011;52544;48.116;11.660;2023-02-28T01:26:08;18.63;;;8.00;;
65799;SDS011;52544;48.116;11.660;2023-02-28T01:28:35;18.65;;;8.65;;
65799;SDS011;52544;48.116;11.660;2023-02-28T01:31:01;27.33;;;10.20;;
65799;SDS011;52544;48.116;11.660;2023-02-28T01:33:26;26.60;;;10.93;;
65799;SDS011;52544;48.116;11.660;2023-02-28T01:36:05;20.45;;;9.05;;
65799;SDS011;52544;48.116;11.660;2023-02-28T01:38:34;6.68;;;4.10;;
65799;SDS011;52544;48.116;11.660;2023-02-28T01:41:00;7.10;;;3.65;;
65799;SDS011;52544;48.116;11.660;2023-02-28T01:43:27;7.18;;;3.58;;
65799;SDS011;52544;48.116;11.660;2023-02-28T01:45:54;7.15;;;3.42;;
65799;SDS011;52544;48.116;11.660;2023-02-28T01:48:21;7.65;;;3.20;;
65799;SDS011;52544;48.116;11.660;2023-02-28T01:50:51;5.82;;;3.40;;
65799;SDS011;52544;48.116;11.660;2023-02-28T01:53:25;8.65;;;3.60;;
65799;SDS011;52544;48.116;11.660;2023-02-28T01:55:57;10.02;;;3.17;;
65799;SDS011;52544;48.116;11.660;2023-02-28T01:58:23;3.97;;;2.80;;
65799;SDS011;52544;48.116;11.660;2023-02-28T02:00:49;5.82;;;3.10;;
65799;SDS011;52544;48.116;11.660;2023-02-28T02:03:14;8.23;;;3.17;;
65799;SDS011;52544;48.116;11.660;2023-02-28T02:05:44;7.50;;;3.55;;
65799;SDS011;52544;48.116;11.660;2023-02-28T02:08:19;8.82;;;3.53;;
65799;SDS011;52544;48.116;11.660;2023-02-28T02:10:51;7.03;;;3.75;;
65799;SDS011;52544;48.116;11.660;2023-02-28T02:18:46;7.43;;;3.95;;
65799;SDS011;52544;48.116;11.660;2023-02-28T02:23:56;6.47;;;3.35;;
65799;SDS011;52544;48.116;11.660;2023-02-28T02:29:21;8.60;;;4.28;;
65799;SDS011;52544;48.116;11.660;2023-02-28T02:37:29;7.53;;;3.72;;
65799;SDS011;52544;48.116;11.660;2023-02-28T02:45:32;6.28;;;3.58;;
65799;SDS011;52544;48.116;11.660;2023-02-28T02:48:03;8.43;;;4.15;;
65799;SDS011;52544;48.116;11.660;2023-02-28T02:50:33;6.22;;;3.58;;
65799;SDS011;52544;48.116;11.660;2023-02-28T02:53:02;8.45;;;3.85;;
65799;SDS011;52544;48.116;11.660;2023-02-28T02:55:31;8.60;;;3.55;;
65799;SDS011;52544;48.116;11.660;2023-02-28T02:58:02;4.95;;;2.85;;
65799;SDS011;52544;48.116;11.660;2023-02-28T03:00:36;6.43;;;3.50;;
65799;SDS011;52544;48.116;11.660;2023-02-28T03:03:04;9.15;;;3.60;;
65799;SDS011;52544;48.116;11.660;2023-02-28T03:05:34;7.03;;;3.42;;
65799;SDS011;52544;48.116;11.660;2023-02-28T03:08:06;6.03;;;3.20;;
65799;SDS011;52544;48.116;11.660;2023-02-28T03:10:33;10.15;;;4.10;;
65799;SDS011;52544;48.116;11.660;2023-02-28T03:16:22;5.78;;;3.20;;
65799;SDS011;52544;48.116;11.660;2023-02-28T03:24:49;6.07;;;2.83;;
65799;SDS011;52544;48.116;11.660;2023-02-28T03:27:40;8.38;;;3.30;;
65799;SDS011;52544;48.116;11.660;2023-02-28T03:30:26;6.82;;;3.20;;
65799;SDS011;52544;48.116;11.660;2023-02-28T03:32:58;5.38;;;3.15;;
65799;SDS011;52544;48.116;11.660;2023-02-28T03:35:35;9.15;;;3.90;;
65799;SDS011;52544;48.116;11.660;2023-02-28T03:41:19;7.93;;;3.75;;
65799;SDS011;52544;48.116;11.660;2023-02-28T03:43:51;6.93;;;3.42;;
65799;SDS011;52544;48.116;11.660;2023-02-28T03:46:21;7.75;;;3.53;;
65799;SDS011;52544;48.116;11.660;2023-02-28T03:48:57;7.18;;;3.85;;
65799;SDS011;52544;48.116;11.660;2023-02-28T03:51:32;6.95;;;3.50;;
65799;SDS011;52544;48.116;11.660;2023-02-28T03:54:06;6.72;;;3.78;;
65799;SDS011;52544;48.116;11.660;2023-02-28T03:56:38;9.30;;;3.35;;
65799;SDS011;52544;48.116;11.660;2023-02-28T03:59:22;6.90;;;3.75;;
65799;SDS011;52544;48.116;11.660;2023-02-28T04:01:55;8.20;;;3.95;;
65799;SDS011;52544;48.116;11.660;2023-02-28T04:04:23;7.03;;;3.90;;
65799;SDS011;52544;48.116;11.660;2023-02-28T04:06:50;9.27;;;4.53;;
65799;SDS011;52544;48.116;11.660;2023-02-28T04:09:17;6.25;;;3.95;;
65799;SDS011;52544;48.116;11.660;2023-02-28T04:11:48;10.18;;;4.55;;
65799;SDS011;52544;48.116;11.660;2023-02-28T04:14:17;6.63;;;4.32;;
65799;SDS011;52544;48.116;11.660;2023-02-28T04:16:43;12.90;;;4.43;;
65799;SDS011;52544;48.116;11.660;2023-02-28T04:19:09;14.93;;;5.28;;
65799;SDS011;52544;48.116;11.660;2023-02-28T04:21:37;9.63;;;4.15;;
65799;SDS011;52544;48.116;11.660;2023-02-28T04:24:05;10.52;;;5.05;;
65799;SDS011;52544;48.116;11.660;2023-02-28T04:26:33;8.85;;;4.57;;
65799;SDS011;52544;48.116;11.660;2023-02-28T04:29:00;9.25;;;4.63;;
65799;SDS011;52544;48.116;11.660;2023-02-28T04:31:26;12.27;;;5.57;;
65799;SDS011;52544;48.116;11.660;2023-02-28T04:33:51;8.88;;;4.70;;
65799;SDS011;52544;48.116;11.660;2023-02-28T04:36:17;9.60;;;5.10;;
65799;SDS011;52544;48.116;11.660;2023-02-28T04:38:43;12.38;;;5.47;;
65799;SDS011;52544;48.116;11.660;2023-02-28T04:41:10;10.85;;;4.60;;
65799;SDS011;52544;48.116;11.660;2023-02-28T04:43:35;12.68;;;5.55;;
65799;SDS011;52544;48.116;11.660;2023-02-28T04:46:01;11.57;;;5.80;;
65799;SDS011;52544;48.116;11.660;2023-02-28T04:48:29;9.80;;;5.15;;
65799;SDS011;52544;48.116;11.660;2023-02-28T04:51:00;10.07;;;5.07;;
65799;SDS011;52544;48.116;11.660;2023-02-28T04:53:27;10.68;;;5.97;;
65799;SDS011;52544;48.116;11.660;2023-02-28T04:55:54;17.88;;;6.43;;
65799;SDS011;52544;48.116;11.660;2023-02-28T04:58:19;12.50;;;5.82;;
65799;SDS011;52544;48.116;11.660;2023-02-28T05:00:47;11.63;;;5.55;;
65799;SDS011;52544;48.116;11.660;2023-02-28T05:03:12;13.63;;;6.55;;
65799;SDS011;52544;48.116;11.660;2023-02-28T05:05:38;12.35;;;5.85;;
65799;SDS011;52544;48.116;11.660;2023-02-28T05:08:03;11.77;;;5.55;;
65799;SDS011;52544;48.116;11.660;2023-02-28T05:10:30;10.52;;;5.78;;
65799;SDS011;52544;48.116;11.660;2023-02-28T05:12:55;13.30;;;5.95;;
65799;SDS011;52544;48.116;11.660;2023-02-28T05:15:21;12.52;;;5.95;;
65799;SDS011;52544;48.116;11.660;2023-02-28T05:17:46;12.60;;;6.43;;
65799;SDS011;52544;48.116;11.660;2023-02-28T05:20:12;12.43;;;6.00;;
65799;SDS011;52544;48.116;11.660;2023-02-28T05:22:38;15.25;;;7.00;;
65799;SDS011;52544;48.116;11.660;2023-02-28T05:25:04;11.75;;;5.57;;
65799;SDS011;52544;48.116;11.660;2023-02-28T05:27:30;13.95;;;6.85;;
65799;SDS011;52544;48.116;11.660;2023-02-28T05:29:56;13.93;;;6.40;;
65799;SDS011;52544;48.116;11.660;2023-02-28T05:32:22;16.10;;;7.38;;
65799;SDS011;52544;48.116;11.660;2023-02-28T05:34:48;15.88;;;7.10;;
65799;SDS011;52544;48.116;11.660;2023-02-28T05:37:13;15.30;;;6.75;;
65799;SDS011;52544;48.116;11.660;2023-02-28T05:39:40;16.42;;;7.93;;
65799;SDS011;52544;48.116;11.660;2023-02-28T05:42:06;14.63;;;6.70;;
65799;SDS011;52544;48.116;11.660;2023-02-28T05:44:32;19.17;;;7.40;;
65799;SDS011;52544;48.116;11.660;2023-02-28T05:46:57;16.27;;;7.07;;
65799;SDS011;52544;48.116;11.660;2023-02-28T05:49:23;14.25;;;8.15;;
65799;SDS011;52544;48.116;11.660;2023-02-28T05:51:48;17.25;;;7.40;;
65799;SDS011;52544;48.116;11.660;2023-02-28T05:54:13;19.23;;;8.05;;
65799;SDS011;52544;48.116;11.660;2023-02-28T05:56:39;16.08;;;7.65;;
65799;SDS011;52544;48.116;11.660;2023-02-28T05:59:06;17.23;;;7.97;;
65799;SDS011;52544;48.116;11.660;2023-02-28T06:01:33;19.45;;;9.05;;
65799;SDS011;52544;48.116;11.660;2023-02-28T06:04:01;16.98;;;7.80;;
65799;SDS011;52544;48.116;11.660;2023-02-28T06:06:27;18.83;;;8.57;;
65799;SDS011;52544;48.116;11.660;2023-02-28T06:08:54;18.90;;;8.65;;
65799;SDS011;52544;48.116;11.660;2023-02-28T06:11:20;17.88;;;8.70;;
65799;SDS011;52544;48.116;11.660;2023-02-28T06:13:46;16.88;;;7.78;;
65799;SDS011;52544;48.116;11.660;2023-02-28T06:16:12;20.98;;;9.30;;
65799;SDS011;52544;48.116;11.660;2023-02-28T06:18:37;19.67;;;8.25;;
65799;SDS011;52544;48.116;11.660;2023-02-28T06:21:03;18.60;;;8.23;;
65799;SDS011;52544;48.116;11.660;2023-02-28T06:23:28;21.05;;;9.48;;
65799;SDS011;52544;48.116;11.660;2023-02-28T06:25:54;22.98;;;9.25;;
65799;SDS011;52544;48.116;11.660;2023-02-28T06:28:23;18.83;;;9.43;;
65799;SDS011;52544;48.116;11.660;2023-02-28T06:30:49;18.10;;;8.80;;
65799;SDS011;52544;48.116;11.660;2023-02-28T06:33:14;18.95;;;8.95;;
65799;SDS011;52544;48.116;11.660;2023-02-28T06:35:42;20.13;;;9.52;;
65799;SDS011;52544;48.116;11.660;2023-02-28T06:38:08;20.10;;;9.55;;
65799;SDS011;52544;48.116;11.660;2023-02-28T06:40:34;18.73;;;9.32;;
65799;SDS011;52544;48.116;11.660;2023-02-28T06:43:00;20.60;;;9.00;;
65799;SDS011;52544;48.116;11.660;2023-02-28T06:45:26;19.55;;;9.13;;
65799;SDS011;52544;48.116;11.660;2023-02-28T06:47:51;22.27;;;9.40;;
65799;SDS011;52544;48.116;11.660;2023-02-28T06:50:17;17.80;;;9.30;;
65799;SDS011;52544;48.116;11.660;2023-02-28T06:52:44;19.52;;;8.68;;
65799;SDS011;52544;48.116;11.660;2023-02-28T06:55:09;20.20;;;9.10;;
65799;SDS011;52544;48.116;11.660;2023-02-28T06:57:35;17.73;;;8.85;;
65799;SDS011;52544;48.116;11.660;2023-02-28T07:00:03;21.48;;;10.18;;
65799;SDS011;52544;48.116;11.660;2023-02-28T07:02:32;23.63;;;10.10;;
65799;SDS011;52544;48.116;11.660;2023-02-28T07:04:58;20.13;;;10.50;;
65799;SDS011;52544;48.116;11.660;2023-02-28T07:07:24;19.67;;;9.32;;
65799;SDS011;52544;48.116;11.660;2023-02-28T07:09:49;19.98;;;10.43;;
65799;SDS011;52544;48.116;11.660;2023-02-28T07:12:14;23.40;;;10.23;;
65799;SDS011;52544;48.116;11.660;2023-02-28T07:14:40;20.85;;;10.13;;
65799;SDS011;52544;48.116;11.660;2023-02-28T07:17:09;25.70;;;10.57;;
65799;SDS011;52544;48.116;11.660;2023-02-28T07:19:37;24.27;;;10.45;;
65799;SDS011;52544;48.116;11.660;2023-02-28T07:22:04;20.33;;;9.77;;
65799;SDS011;52544;48.116;11.660;2023-02-28T07:24:29;21.95;;;10.52;;
65799;SDS011;52544;48.116;11.660;2023-02-28T07:26:55;21.77;;;9.50;;
65799;SDS011;52544;48.116;11.660;2023-02-28T07:29:21;21.40;;;10.10;;
65799;SDS011;52544;48.116;11.660;2023-02-28T07:31:46;21.55;;;9.73;;
65799;SDS011;52544;48.116;11.660;2023-02-28T07:34:12;22.30;;;10.20;;
65799;SDS011;52544;48.116;11.660;2023-02-28T07:36:38;23.52;;;10.00;;
65799;SDS011;52544;48.116;11.660;2023-02-28T07:39:04;25.52;;;10.98;;
65799;SDS011;52544;48.116;11.660;2023-02-28T07:41:29;21.27;;;9.63;;
65799;SDS011;52544;48.116;11.660;2023-02-28T07:43:58;19.75;;;10.00;;
65799;SDS011;52544;48.116;11.660;2023-02-28T07:46:24;21.45;;;9.55;;
65799;SDS011;52544;48.116;11.660;2023-02-28T07:48:50;20.63;;;9.77;;
65799;SDS011;52544;48.116;11.660;2023-02-28T07:51:16;23.98;;;10.32;;
65799;SDS011;52544;48.116;11.660;2023-02-28T07:53:41;23.30;;;10.55;;
65799;SDS011;52544;48.116;11.660;2023-02-28T07:56:07;24.92;;;10.65;;
65799;SDS011;52544;48.116;11.660;2023-02-28T07:58:32;24.08;;;10.48;;
65799;SDS011;52544;48.116;11.660;2023-02-28T08:01:04;21.65;;;9.75;;
65799;SDS011;52544;48.116;11.660;2023-02-28T08:03:33;22.25;;;10.25;;
65799;SDS011;52544;48.116;11.660;2023-02-28T08:05:59;20.40;;;10.05;;
65799;SDS011;52544;48.116;11.660;2023-02-28T08:08:24;24.95;;;11.32;;
65799;SDS011;52544;48.116;11.660;2023-02-28T08:10:57;20.80;;;10.60;;
65799;SDS011;52544;48.116;11.660;2023-02-28T08:13:24;21.98;;;10.35;;
65799;SDS011;52544;48.116;11.660;2023-02-28T08:15:50;20.02;;;10.07;;
65799;SDS011;52544;48.116;11.660;2023-02-28T08:18:15;21.40;;;9.73;;
65799;SDS011;52544;48.116;11.660;2023-02-28T08:20:40;22.17;;;10.40;;
65799;SDS011;52544;48.116;11.660;2023-02-28T08:23:06;25.63;;;10.73;;
65799;SDS011;52544;48.116;11.660;2023-02-28T08:25:32;23.13;;;10.38;;
65799;SDS011;52544;48.116;11.660;2023-02-28T08:27:57;23.35;;;10.68;;
65799;SDS011;52544;48.116;11.660;2023-02-28T08:30:22;26.27;;;10.05;;
65799;SDS011;52544;48.116;11.660;2023-02-28T08:32:48;23.90;;;10.68;;
65799;SDS011;52544;48.116;11.660;2023-02-28T08:35:13;20.23;;;9.70;;
65799;SDS011;52544;48.116;11.660;2023-02-28T08:37:39;21.92;;;10.63;;
65799;SDS011;52544;48.116;11.660;2023-02-28T08:40:04;23.58;;;10.73;;
65799;SDS011;52544;48.116;11.660;2023-02-28T08:42:31;22.92;;;10.65;;
65799;SDS011;52544;48.116;11.660;2023-02-28T08:44:57;21.25;;;10.80;;
65799;SDS011;52544;48.116;11.660;2023-02-28T08:47:22;31.95;;;10.85;;
65799;SDS011;52544;48.116;11.660;2023-02-28T08:49:47;23.23;;;10.95;;
65799;SDS011;52544;48.116;11.660;2023-02-28T08:52:13;21.77;;;10.73;;
65799;SDS011;52544;48.116;11.660;2023-02-28T08:54:38;22.40;;;10.82;;
65799;SDS011;52544;48.116;11.660;2023-02-28T08:57:04;21.83;;;10.27;;
65799;SDS011;52544;48.116;11.660;2023-02-28T08:59:30;23.60;;;10.98;;
65799;SDS011;52544;48.116;11.660;2023-02-28T09:01:55;27.42;;;11.40;;
65799;SDS011;52544;48.116;11.660;2023-02-28T09:04:21;29.60;;;14.05;;
65799;SDS011;52544;48.116;11.660;2023-02-28T09:06:47;21.92;;;10.65;;
65799;SDS011;52544;48.116;11.660;2023-02-28T09:09:14;25.73;;;11.63;;
65799;SDS011;52544;48.116;11.660;2023-02-28T09:11:40;25.85;;;10.70;;
65799;SDS011;52544;48.116;11.660;2023-02-28T09:14:05;22.17;;;9.50;;
65799;SDS011;52544;48.116;11.660;2023-02-28T09:16:31;19.23;;;9.63;;
65799;SDS011;52544;48.116;11.660;2023-02-28T09:18:57;25.02;;;9.45;;
65799;SDS011;52544;48.116;11.660;2023-02-28T09:21:23;23.33;;;9.65;;
65799;SDS011;52544;48.116;11.660;2023-02-28T09:23:49;20.17;;;9.93;;
65799;SDS011;52544;48.116;11.660;2023-02-28T09:28:41;20.45;;;10.65;;
65799;SDS011;52544;48.116;11.660;2023-02-28T09:31:10;25.35;;;10.80;;
65799;SDS011;52544;48.116;11.660;2023-02-28T09:33:39;21.77;;;10.32;;
65799;SDS011;52544;48.116;11.660;2023-02-28T09:36:05;20.65;;;10.55;;
65799;SDS011;52544;48.116;11.660;2023-02-28T09:38:30;19.98;;;9.60;;
65799;SDS011;52544;48.116;11.660;2023-02-28T09:40:57;24.20;;;10.40;;
65799;SDS011;52544;48.116;11.660;2023-02-28T09:43:26;22.70;;;11.05;;
65799;SDS011;52544;48.116;11.660;2023-02-28T09:45:59;32.40;;;10.68;;
65799;SDS011;52544;48.116;11.660;2023-02-28T09:48:35;23.83;;;10.88;;
65799;SDS011;52544;48.116;11.660;2023-02-28T09:51:09;34.22;;;10.50;;
65799;SDS011;52544;48.116;11.660;2023-02-28T09:53:48;23.08;;;11.13;;
65799;SDS011;52544;48.116;11.660;2023-02-28T09:56:15;24.23;;;11.77;;
65799;SDS011;52544;48.116;11.660;2023-02-28T10:04:40;22.98;;;11.40;;
65799;SDS011;52544;48.116;11.660;2023-02-28T10:07:14;20.15;;;9.93;;
65799;SDS011;52544;48.116;11.660;2023-02-28T10:09:47;21.80;;;10.98;;
65799;SDS011;52544;48.116;11.660;2023-02-28T10:12:18;22.60;;;10.52;;
65799;SDS011;52544;48.116;11.660;2023-02-28T10:14:45;23.88;;;11.35;;
65799;SDS011;52544;48.116;11.660;2023-02-28T10:17:15;25.65;;;10.88;;
65799;SDS011;52544;48.116;11.660;2023-02-28T10:20:00;21.80;;;10.45;;
65799;SDS011;52544;48.116;11.660;2023-02-28T10:22:34;30.70;;;11.27;;
65799;SDS011;52544;48.116;11.660;2023-02-28T10:25:17;20.27;;;9.85;;
65799;SDS011;52544;48.116;11.660;2023-02-28T10:27:49;27.30;;;10.02;;
65799;SDS011;52544;48.116;11.660;2023-02-28T10:30:18;31.75;;;10.57;;
65799;SDS011;52544;48.116;11.660;2023-02-28T10:32:49;28.35;;;10.80;;
65799;SDS011;52544;48.116;11.660;2023-02-28T10:35:17;26.15;;;11.27;;
65799;SDS011;52544;48.116;11.660;2023-02-28T10:37:47;20.75;;;10.38;;
65799;SDS011;52544;48.116;11.660;2023-02-28T10:43:03;20.10;;;10.32;;
65799;SDS011;52544;48.116;11.660;2023-02-28T10:45:33;26.80;;;11.32;;
65799;SDS011;52544;48.116;11.660;2023-02-28T10:58:26;23.65;;;11.55;;
65799;SDS011;52544;48.116;11.660;2023-02-28T11:00:54;24.67;;;11.23;;
65799;SDS011;52544;48.116;11.660;2023-02-28T11:03:53;23.00;;;11.10;;
65799;SDS011;52544;48.116;11.660;2023-02-28T11:06:22;23.08;;;11.18;;
65799;SDS011;52544;48.116;11.660;2023-02-28T11:08:55;27.23;;;11.15;;
65799;SDS011;52544;48.116;11.660;2023-02-28T11:11:22;24.63;;;11.13;;
65799;SDS011;52544;48.116;11.660;2023-02-28T11:13:51;24.90;;;10.55;;
65799;SDS011;52544;48.116;11.660;2023-02-28T11:16:19;26.80;;;11.95;;
65799;SDS011;52544;48.116;11.660;2023-02-28T11:18:55;23.65;;;10.70;;
65799;SDS011;52544;48.116;11.660;2023-02-28T11:21:25;23.05;;;11.32;;
65799;SDS011;52544;48.116;11.660;2023-02-28T11:24:02;26.13;;;11.13;;
65799;SDS011;52544;48.116;11.660;2023-02-28T11:26:38;20.55;;;10.60;;
65799;SDS011;52544;48.116;11.660;2023-02-28T11:29:16;23.73;;;11.07;;
65799;SDS011;52544;48.116;11.660;2023-02-28T11:31:52;30.75;;;11.02;;
65799;SDS011;52544;48.116;11.660;2023-02-28T11:34:27;23.50;;;10.70;;
65799;SDS011;52544;48.116;11.660;2023-02-28T11:36:54;22.65;;;10.75;;
65799;SDS011;52544;48.116;11.660;2023-02-28T11:39:22;24.95;;;10.82;;
65799;SDS011;52544;48.116;11.660;2023-02-28T11:45:03;21.40;;;10.55;;
65799;SDS011;52544;48.116;11.660;2023-02-28T11:53:19;25.92;;;11.90;;
65799;SDS011;52544;48.116;11.660;2023-02-28T12:01:18;20.00;;;10.18;;
65799;SDS011;52544;48.116;11.660;2023-02-28T12:03:52;18.95;;;9.90;;
65799;SDS011;52544;48.116;11.660;2023-02-28T12:09:47;20.13;;;10.50;;
65799;SDS011;52544;48.116;11.660;2023-02-28T12:12:32;23.88;;;10.68;;
65799;SDS011;52544;48.116;11.660;2023-02-28T12:15:16;21.05;;;10.82;;
65799;SDS011;52544;48.116;11.660;2023-02-28T12:20:22;21.45;;;10.63;;
65799;SDS011;52544;48.116;11.660;2023-02-28T12:25:29;20.75;;;11.05;;
65799;SDS011;52544;48.116;11.660;2023-02-28T12:28:13;24.00;;;11.23;;
65799;SDS011;52544;48.116;11.660;2023-02-28T12:30:51;22.42;;;11.48;;
65799;SDS011;52544;48.116;11.660;2023-02-28T12:33:22;21.45;;;11.15;;
65799;SDS011;52544;48.116;11.660;2023-02-28T12:35:52;20.25;;;10.63;;
65799;SDS011;52544;48.116;11.660;2023-02-28T12:38:37;19.95;;;11.10;;
65799;SDS011;52544;48.116;11.660;2023-02-28T12:41:12;19.13;;;10.45;;
65799;SDS011;52544;48.116;11.660;2023-02-28T12:43:43;22.08;;;10.30;;
65799;SDS011;52544;48.116;11.660;2023-02-28T12:46:15;25.92;;;10.45;;
65799;SDS011;52544;48.116;11.660;2023-02-28T12:48:47;20.10;;;10.93;;
65799;SDS011;52544;48.116;11.660;2023-02-28T12:51:17;24.00;;;11.23;;
65799;SDS011;52544;48.116;11.660;2023-02-28T13:02:42;19.13;;;9.27;;
65799;SDS011;52544;48.116;11.660;2023-02-28T13:05:30;19.33;;;10.43;;
65799;SDS011;52544;48.116;11.660;2023-02-28T13:11:31;19.45;;;10.13;;
65799;SDS011;52544;48.116;11.660;2023-02-28T13:13:59;19.58;;;10.45;;
65799;SDS011;52544;48.116;11.660;2023-02-28T13:16:27;18.83;;;10.45;;
65799;SDS011;52544;48.116;11.660;2023-02-28T13:18:53;19.85;;;10.20;;
65799;SDS011;52544;48.116;11.660;2023-02-28T13:21:41;21.92;;;11.02;;
65799;SDS011;52544;48.116;11.660;2023-02-28T13:24:09;19.90;;;11.15;;
65799;SDS011;52544;48.116;11.660;2023-02-28T13:29:02;25.45;;;10.82;;
65799;SDS011;52544;48.116;11.660;2023-02-28T13:34:33;21.90;;;9.65;;
65799;SDS011;52544;48.116;11.660;2023-02-28T13:53:39;32.65;;;10.43;;
65799;SDS011;52544;48.116;11.660;2023-02-28T14:01:11;18.77;;;9.75;;
65799;SDS011;52544;48.116;11.660;2023-02-28T14:04:01;20.95;;;10.27;;
65799;SDS011;52544;48.116;11.660;2023-02-28T14:06:31;21.02;;;10.07;;
65799;SDS011;52544;48.116;11.660;2023-02-28T14:09:02;20.05;;;10.18;;
65799;SDS011;52544;48.116;11.660;2023-02-28T14:11:46;27.48;;;10.27;;
65799;SDS011;52544;48.116;11.660;2023-02-28T14:17:02;20.38;;;9.82;;
65799;SDS011;52544;48.116;11.660;2023-02-28T14:19:30;17.40;;;8.82;;
65799;SDS011;52544;48.116;11.660;2023-02-28T14:24:56;28.20;;;10.00;;
65799;SDS011;52544;48.116;11.660;2023-02-28T14:38:27;19.92;;;9.38;;
65799;SDS011;52544;48.116;11.660;2023-02-28T14:41:00;22.63;;;9.45;;
65799;SDS011;52544;48.116;11.660;2023-02-28T14:43:31;17.48;;;9.07;;
65799;SDS011;52544;48.116;11.660;2023-02-28T14:45:58;19.10;;;9.52;;
65799;SDS011;52544;48.116;11.660;2023-02-28T14:48:26;24.23;;;9.60;;
65799;SDS011;52544;48.116;11.660;2023-02-28T14:50:55;19.70;;;9.25;;
65799;SDS011;52544;48.116;11.660;2023-02-28T14:53:23;16.38;;;8.80;;
65799;SDS011;52544;48.116;11.660;2023-02-28T14:55:52;18.67;;;9.55;;
65799;SDS011;52544;48.116;11.660;2023-02-28T14:58:28;16.92;;;8.77;;
65799;SDS011;52544;48.116;11.660;2023-02-28T15:00:56;17.27;;;8.32;;
65799;SDS011;52544;48.116;11.660;2023-02-28T15:05:55;15.75;;;8.35;;
65799;SDS011;52544;48.116;11.660;2023-02-28T15:08:23;14.20;;;8.18;;
65799;SDS011;52544;48.116;11.660;2023-02-28T15:10:54;18.20;;;8.55;;
65799;SDS011;52544;48.116;11.660;2023-02-28T15:13:22;20.70;;;8.82;;
65799;SDS011;52544;48.116;11.660;2023-02-28T15:18:25;20.60;;;8.80;;
65799;SDS011;52544;48.116;11.660;2023-02-28T15:21:34;18.63;;;8.98;;
65799;SDS011;52544;48.116;11.660;2023-02-28T15:24:12;19.48;;;8.88;;
65799;SDS011;52544;48.116;11.660;2023-02-28T15:26:50;20.35;;;8.88;;
65799;SDS011;52544;48.116;11.660;2023-02-28T15:29:20;15.85;;;8.68;;
65799;SDS011;52544;48.116;11.660;2023-02-28T15:31:49;27.27;;;8.80;;
65799;SDS011;52544;48.116;11.660;2023-02-28T15:36:54;23.70;;;9.10;;
65799;SDS011;52544;48.116;11.660;2023-02-28T15:39:21;18.75;;;8.85;;
65799;SDS011;52544;48.116;11.660;2023-02-28T15:41:49;19.42;;;8.95;;
65799;SDS011;52544;48.116;11.660;2023-02-28T15:44:23;20.73;;;9.30;;
65799;SDS011;52544;48.116;11.660;2023-02-28T15:46:57;20.77;;;9.10;;
65799;SDS011;52544;48.116;11.660;2023-02-28T15:49:23;18.05;;;9.15;;
65799;SDS011;52544;48.116;11.660;2023-02-28T15:51:50;21.25;;;9.73;;
65799;SDS011;52544;48.116;11.660;2023-02-28T15:54:19;19.60;;;8.85;;
65799;SDS011;52544;48.116;11.660;2023-02-28T15:56:53;17.02;;;9.27;;
65799;SDS011;52544;48.116;11.660;2023-02-28T15:59:26;17.83;;;9.32;;
65799;SDS011;52544;48.116;11.660;2023-02-28T16:02:11;17.77;;;9.52;;
65799;SDS011;52544;48.116;11.660;2023-02-28T16:05:00;20.23;;;9.32;;
65799;SDS011;52544;48.116;11.660;2023-02-28T16:07:35;20.38;;;9.70;;
65799;SDS011;52544;48.116;11.660;2023-02-28T16:10:03;20.80;;;9.55;;
65799;SDS011;52544;48.116;11.660;2023-02-28T16:12:30;20.17;;;9.30;;
65799;SDS011;52544;48.116;11.660;2023-02-28T16:14:58;20.98;;;9.88;;
65799;SDS011;52544;48.116;11.660;2023-02-28T16:17:28;17.23;;;9.02;;
65799;SDS011;52544;48.116;11.660;2023-02-28T16:19:56;21.50;;;9.60;;
65799;SDS011;52544;48.116;11.660;2023-02-28T16:22:22;23.92;;;9.45;;
65799;SDS011;52544;48.116;11.660;2023-02-28T16:24:47;25.88;;;9.45;;
65799;SDS011;52544;48.116;11.660;2023-02-28T16:27:15;18.65;;;9.00;;
65799;SDS011;52544;48.116;11.660;2023-02-28T16:29:43;24.38;;;9.82;;
65799;SDS011;52544;48.116;11.660;2023-02-28T16:32:10;22.15;;;9.65;;
65799;SDS011;52544;48.116;11.660;2023-02-28T16:34:38;23.00;;;9.30;;
65799;SDS011;52544;48.116;11.660;2023-02-28T16:37:04;15.05;;;8.30;;
65799;SDS011;52544;48.116;11.660;2023-02-28T16:39:35;21.95;;;10.00;;
65799;SDS011;52544;48.116;11.660;2023-02-28T16:42:01;20.30;;;9.77;;
65799;SDS011;52544;48.116;11.660;2023-02-28T16:44:27;22.58;;;9.48;;
65799;SDS011;52544;48.116;11.660;2023-02-28T16:46:54;23.92;;;9.93;;
65799;SDS011;52544;48.116;11.660;2023-02-28T16:49:20;17.92;;;9.52;;
65799;SDS011;52544;48.116;11.660;2023-02-28T16:51:46;20.33;;;9.38;;
65799;SDS011;52544;48.116;11.660;2023-02-28T16:54:11;22.27;;;10.20;;